Time;durP1;ratioP1;P1;durP2;ratioP2;P2;SDS_P1;SDS_P2;PMS_P1;PMS_P2;Temp;Humidity;BMP_temperature;BMP_pressure;BME280_temperature;BME280_humidity;BME280_pressure;Samples;Min_cycle;Max_cycle;Signal;HPM_P1;HPM_P2
2023/05/09 00:01:55;;;;;;;53.97;25.83;;;14.40;99.90;;;;;;5078675;28;20049;-86
2023/05/09 00:04:21;;;;;;;53.17;25.88;;;14.40;99.90;;;;;;5096071;28;20099;-86
2023/05/09 00:06:47;;;;;;;48.28;23.63;;;14.40;99.90;;;;;;5095592;28;20075;-86
2023/05/09 00:09:12;;;;;;;45.35;25.02;;;14.30;99.90;;;;;;5095774;28;20119;-86
2023/05/09 00:11:38;;;;;;;42.90;22.75;;;14.40;99.90;;;;;;5112059;28;20052;-86
2023/05/09 00:14:04;;;;;;;50.75;24.65;;;14.40;99.90;;;;;;5111617;28;20107;-86
2023/05/09 00:16:31;;;;;;;49.58;24.83;;;14.40;99.90;;;;;;5095218;28;20043;-86
2023/05/09 00:18:58;;;;;;;53.10;26.13;;;14.40;99.90;;;;;;5090886;28;20180;-86
2023/05/09 00:21:24;;;;;;;56.10;27.65;;;14.40;99.90;;;;;;5108092;28;20040;-87
2023/05/09 00:23:50;;;;;;;51.15;26.45;;;14.40;99.90;;;;;;5123855;27;20072;-87
2023/05/09 00:26:16;;;;;;;52.40;26.45;;;14.40;99.90;;;;;;5075522;28;20055;-87
2023/05/09 00:28:41;;;;;;;54.78;26.30;;;14.40;99.90;;;;;;5125663;27;20416;-87
2023/05/09 00:31:07;;;;;;;47.58;23.73;;;14.40;99.90;;;;;;5106840;28;20465;-85
2023/05/09 00:33:33;;;;;;;53.92;25.75;;;14.40;99.90;;;;;;5107150;28;20049;-86
2023/05/09 00:35:59;;;;;;;51.72;24.67;;;14.40;99.90;;;;;;5090054;28;20095;-86
2023/05/09 00:38:25;;;;;;;59.33;27.35;;;14.40;99.90;;;;;;5090096;28;20101;-87
2023/05/09 00:40:50;;;;;;;54.65;25.92;;;14.40;99.90;;;;;;5106543;28;20070;-86
2023/05/09 00:43:16;;;;;;;55.85;26.80;;;14.40;99.90;;;;;;5072958;28;20105;-87
2023/05/09 00:45:44;;;;;;;56.55;27.35;;;14.40;99.90;;;;;;5089791;28;20114;-87
2023/05/09 00:48:09;;;;;;;57.05;26.13;;;14.40;99.90;;;;;;5123503;27;20083;-87
2023/05/09 00:50:36;;;;;;;57.63;27.02;;;14.40;99.90;;;;;;5089746;28;20448;-87
2023/05/09 00:53:03;;;;;;;72.13;29.02;;;14.40;99.90;;;;;;5088354;28;20043;-87
2023/05/09 00:55:29;;;;;;;65.40;28.48;;;14.50;99.90;;;;;;5090348;28;20146;-86
2023/05/09 00:57:54;;;;;;;63.67;29.75;;;14.40;99.90;;;;;;5088520;28;20551;-87
2023/05/09 01:00:20;;;;;;;62.20;28.27;;;14.40;99.90;;;;;;5089734;28;20418;-86
2023/05/09 01:02:49;;;;;;;81.85;32.03;;;14.40;99.90;;;;;;5089279;28;20054;-87
2023/05/09 01:05:15;;;;;;;60.17;29.73;;;14.40;99.90;;;;;;5089117;28;20410;-87
2023/05/09 01:08:09;;;;;;;63.50;30.73;;;14.40;99.90;;;;;;5072472;28;20039;-86
2023/05/09 01:10:44;;;;;;;68.53;31.65;;;14.40;99.90;;;;;;5105270;28;20137;-87
2023/05/09 01:13:33;;;;;;;62.63;30.42;;;14.40;99.90;;;;;;5123164;27;20043;-87
2023/05/09 01:16:25;;;;;;;74.38;31.75;;;14.40;99.90;;;;;;5105955;28;20089;-87
2023/05/09 01:19:05;;;;;;;62.50;31.55;;;14.40;99.90;;;;;;5087602;28;20134;-86
2023/05/09 01:21:32;;;;;;;79.43;32.95;;;14.30;99.90;;;;;;5123494;27;20475;-87
2023/05/09 01:24:23;;;;;;;80.65;32.92;;;14.40;99.90;;;;;;5071982;28;20118;-86
2023/05/09 01:27:03;;;;;;;73.88;33.13;;;14.40;99.90;;;;;;5093744;28;20039;-87
2023/05/09 01:29:47;;;;;;;59.85;28.73;;;14.40;99.90;;;;;;5123008;27;20062;-87
2023/05/09 01:32:23;;;;;;;67.32;32.53;;;14.30;99.90;;;;;;5121920;27;20039;-87
2023/05/09 01:34:53;;;;;;;65.90;32.78;;;14.40;99.90;;;;;;5106023;28;20404;-89
2023/05/09 01:37:23;;;;;;;63.42;32.30;;;14.40;99.90;;;;;;5088456;28;20035;-88
2023/05/09 01:39:54;;;;;;;58.05;29.83;;;14.30;99.90;;;;;;5104863;28;20065;-88
2023/05/09 01:42:21;;;;;;;63.95;30.92;;;14.30;99.90;;;;;;5088771;28;20067;-89
2023/05/09 01:44:48;;;;;;;66.63;30.88;;;14.30;99.90;;;;;;5086988;28;20100;-87
2023/05/09 01:47:16;;;;;;;65.07;28.23;;;14.60;99.90;;;;;;5088514;28;20284;-87
2023/05/09 01:49:44;;;;;;;62.90;30.08;;;14.40;99.90;;;;;;5088092;28;20079;-88
2023/05/09 01:52:17;;;;;;;59.78;28.83;;;14.40;99.90;;;;;;5088197;28;20459;-88
2023/05/09 01:54:44;;;;;;;66.43;31.63;;;14.40;99.90;;;;;;5122800;27;20411;-88
2023/05/09 01:57:11;;;;;;;62.85;30.25;;;14.30;99.90;;;;;;5087242;28;20135;-88
2023/05/09 01:59:43;;;;;;;60.60;28.10;;;14.40;99.90;;;;;;5089288;28;20403;-88
2023/05/09 02:02:09;;;;;;;69.97;30.83;;;14.40;99.90;;;;;;5121443;27;20105;-87
2023/05/09 02:04:36;;;;;;;73.80;31.58;;;14.40;99.90;;;;;;5071655;28;20036;-88
2023/05/09 02:07:05;;;;;;;61.20;30.08;;;14.40;99.90;;;;;;5121835;27;20239;-88
2023/05/09 02:09:30;;;;;;;60.08;27.80;;;14.40;99.90;;;;;;5087600;28;20130;-88
2023/05/09 02:11:56;;;;;;;65.38;30.48;;;14.30;99.90;;;;;;5088773;28;20134;-87
2023/05/09 02:14:22;;;;;;;60.40;29.48;;;14.40;99.90;;;;;;5086909;28;20048;-88
2023/05/09 02:16:47;;;;;;;57.42;29.35;;;14.40;99.90;;;;;;5105213;27;20069;-88
2023/05/09 02:19:13;;;;;;;62.35;29.38;;;14.40;99.90;;;;;;5103723;28;20047;-88
2023/05/09 02:21:40;;;;;;;58.60;27.83;;;14.40;99.90;;;;;;5105160;28;20051;-88
2023/05/09 02:24:06;;;;;;;69.65;31.45;;;14.40;99.90;;;;;;5121586;27;20047;-88
2023/05/09 02:26:32;;;;;;;64.03;28.33;;;14.40;99.90;;;;;;5103571;28;20047;-87
2023/05/09 02:28:58;;;;;;;55.10;28.65;;;14.40;99.90;;;;;;5071264;28;20446;-88
2023/05/09 02:31:25;;;;;;;65.55;30.92;;;14.40;99.90;;;;;;5086569;28;20044;-87
2023/05/09 02:33:53;;;;;;;62.20;30.02;;;14.40;99.90;;;;;;5104573;28;20130;-87
2023/05/09 02:36:21;;;;;;;59.60;29.08;;;14.40;99.90;;;;;;5120907;27;20444;-88
2023/05/09 02:38:46;;;;;;;69.10;30.85;;;14.40;99.90;;;;;;5104475;28;20043;-87
2023/05/09 02:41:13;;;;;;;87.38;32.95;;;14.40;99.90;;;;;;5087516;28;20084;-88
2023/05/09 02:43:39;;;;;;;66.90;31.85;;;14.40;99.90;;;;;;5086565;28;20040;-87
2023/05/09 02:46:05;;;;;;;66.00;30.35;;;14.40;99.90;;;;;;5087504;28;20043;-88
2023/05/09 02:48:31;;;;;;;51.95;28.63;;;14.50;99.90;;;;;;5103640;28;20044;-88
2023/05/09 02:50:57;;;;;;;72.30;32.85;;;14.40;99.90;;;;;;5087464;28;20046;-88
2023/05/09 02:53:23;;;;;;;72.15;33.58;;;14.50;99.90;;;;;;5086238;28;21998;-88
2023/05/09 02:55:49;;;;;;;73.85;32.50;;;14.50;99.90;;;;;;5070214;28;20096;-88
2023/05/09 02:58:15;;;;;;;59.80;29.63;;;14.50;99.90;;;;;;5087152;28;20495;-88
2023/05/09 03:00:41;;;;;;;69.47;31.42;;;14.50;99.90;;;;;;5070373;28;20039;-88
2023/05/09 03:03:06;;;;;;;74.13;33.85;;;14.50;99.90;;;;;;5087643;28;20511;-88
2023/05/09 03:05:32;;;;;;;76.10;33.80;;;14.50;99.90;;;;;;5086775;28;20090;-87
2023/05/09 03:07:57;;;;;;;80.45;36.72;;;14.50;99.90;;;;;;5086931;28;20557;-87
2023/05/09 03:10:23;;;;;;;73.18;34.67;;;14.50;99.90;;;;;;5103268;28;20554;-88
2023/05/09 03:12:49;;;;;;;71.03;34.60;;;14.50;99.90;;;;;;5087207;28;20046;-88
2023/05/09 03:15:15;;;;;;;80.82;36.50;;;14.50;99.90;;;;;;5086567;28;20050;-88
2023/05/09 03:17:40;;;;;;;83.10;36.40;;;14.50;99.90;;;;;;5103880;28;20134;-88
2023/05/09 03:20:07;;;;;;;69.28;32.25;;;14.50;99.90;;;;;;5070197;28;20043;-88
2023/05/09 03:22:32;;;;;;;66.93;31.20;;;14.50;99.90;;;;;;5069238;28;20052;-88
2023/05/09 03:24:58;;;;;;;106.05;36.00;;;14.50;99.90;;;;;;5104006;28;20050;-88
2023/05/09 03:27:25;;;;;;;83.55;36.72;;;14.50;99.90;;;;;;5086153;28;20138;-88
2023/05/09 03:29:50;;;;;;;82.75;36.40;;;14.50;99.90;;;;;;5071244;28;20043;-88
2023/05/09 03:32:16;;;;;;;74.28;36.35;;;14.50;99.90;;;;;;5089680;28;20047;-88
2023/05/09 03:34:42;;;;;;;70.93;33.60;;;14.50;99.90;;;;;;5088896;28;20116;-87
2023/05/09 03:37:08;;;;;;;74.28;35.63;;;14.50;99.90;;;;;;5106278;28;20129;-87
2023/05/09 03:39:33;;;;;;;73.82;35.75;;;14.50;99.90;;;;;;5071777;28;20043;-87
2023/05/09 03:41:59;;;;;;;77.85;37.15;;;14.50;99.90;;;;;;5090154;28;20051;-87
2023/05/09 03:44:25;;;;;;;81.07;36.88;;;14.50;99.90;;;;;;5088850;28;20449;-87
2023/05/09 03:46:51;;;;;;;70.20;34.10;;;14.50;99.90;;;;;;5073305;28;20077;-88
2023/05/09 03:49:16;;;;;;;76.75;36.10;;;14.50;99.90;;;;;;5123340;28;20393;-88
2023/05/09 03:51:42;;;;;;;70.38;34.67;;;14.50;99.90;;;;;;5089469;28;20039;-88
2023/05/09 03:54:08;;;;;;;78.15;37.97;;;14.50;99.90;;;;;;5072639;28;20408;-88
2023/05/09 03:56:33;;;;;;;76.78;37.25;;;14.50;99.90;;;;;;5072226;28;20108;-88
2023/05/09 03:58:59;;;;;;;89.35;39.83;;;14.50;99.90;;;;;;5072493;28;20050;-88
2023/05/09 04:01:25;;;;;;;79.43;38.92;;;14.50;99.90;;;;;;5088311;28;20040;-88
2023/05/09 04:03:51;;;;;;;76.85;37.60;;;14.50;99.90;;;;;;5089369;28;20127;-87
2023/05/09 04:06:18;;;;;;;76.90;37.03;;;14.50;99.90;;;;;;5089485;28;20079;-86
2023/05/09 04:08:44;;;;;;;74.60;36.63;;;14.50;99.90;;;;;;5093513;28;20032;-87
2023/05/09 04:11:09;;;;;;;83.68;39.10;;;14.60;99.90;;;;;;5093888;28;20055;-86
2023/05/09 04:13:35;;;;;;;88.03;38.13;;;14.60;99.90;;;;;;5109223;28;20855;-87
2023/05/09 04:16:01;;;;;;;122.03;43.17;;;14.60;99.90;;;;;;5093480;28;20047;-86
2023/05/09 04:18:27;;;;;;;83.15;38.40;;;14.60;99.90;;;;;;5074944;28;20519;-86
2023/05/09 04:20:53;;;;;;;80.40;38.65;;;14.60;99.90;;;;;;5090877;28;20078;-86
2023/05/09 04:23:19;;;;;;;90.80;41.67;;;14.40;99.90;;;;;;5072782;28;20036;-86
2023/05/09 04:25:44;;;;;;;82.57;36.80;;;14.60;99.90;;;;;;5090007;28;20047;-86
2023/05/09 04:28:10;;;;;;;90.53;41.33;;;14.60;99.90;;;;;;5089851;28;20050;-87
2023/05/09 04:30:36;;;;;;;88.72;40.60;;;14.60;99.90;;;;;;5106050;28;20631;-86
2023/05/09 04:33:02;;;;;;;90.15;39.55;;;14.60;99.90;;;;;;5073192;28;20095;-86
2023/05/09 04:35:27;;;;;;;87.70;38.85;;;14.60;99.90;;;;;;5088824;28;20130;-87
2023/05/09 04:37:53;;;;;;;83.75;39.22;;;14.60;99.90;;;;;;5073244;28;20039;-86
2023/05/09 04:40:19;;;;;;;87.78;38.70;;;14.60;99.90;;;;;;5105863;28;20493;-87
2023/05/09 04:42:45;;;;;;;82.75;40.95;;;14.70;99.90;;;;;;5090209;28;20050;-85
2023/05/09 04:45:10;;;;;;;79.43;38.38;;;14.70;99.90;;;;;;5072812;28;20051;-85
2023/05/09 04:47:37;;;;;;;81.18;42.25;;;14.70;99.90;;;;;;5089407;28;20042;-86
2023/05/09 04:50:03;;;;;;;82.13;41.42;;;14.70;99.90;;;;;;5089517;28;20040;-85
2023/05/09 04:52:28;;;;;;;84.32;41.50;;;14.70;99.90;;;;;;5088758;28;20073;-89
2023/05/09 04:54:54;;;;;;;85.85;41.72;;;14.70;99.90;;;;;;5089823;28;20071;-85
2023/05/09 04:57:20;;;;;;;88.60;42.17;;;14.80;99.90;;;;;;5089717;28;20519;-86
2023/05/09 04:59:46;;;;;;;78.20;41.67;;;14.80;99.90;;;;;;5106578;28;20035;-85
2023/05/09 05:02:12;;;;;;;87.03;40.85;;;14.80;99.90;;;;;;5089225;28;20096;-87
2023/05/09 05:04:37;;;;;;;86.15;43.38;;;14.80;99.90;;;;;;5089377;28;20054;-85
2023/05/09 05:07:04;;;;;;;88.53;42.00;;;14.90;99.90;;;;;;5089798;28;20040;-85
2023/05/09 05:09:29;;;;;;;87.60;44.15;;;14.90;99.90;;;;;;5089215;28;20408;-87
2023/05/09 05:11:55;;;;;;;77.13;42.42;;;15.00;99.90;;;;;;5072469;28;20043;-86
2023/05/09 05:14:21;;;;;;;86.45;44.25;;;15.10;99.90;;;;;;5071201;28;20055;-86
2023/05/09 05:16:47;;;;;;;81.53;43.13;;;15.10;99.90;;;;;;5072120;28;20040;-88
2023/05/09 05:19:12;;;;;;;97.05;45.50;;;15.10;99.90;;;;;;5088869;28;20048;-87
2023/05/09 05:21:38;;;;;;;97.40;45.53;;;15.10;99.90;;;;;;5088485;28;20082;-83
2023/05/09 05:24:04;;;;;;;84.78;44.95;;;15.20;99.90;;;;;;5106111;28;20044;-85
2023/05/09 05:26:30;;;;;;;83.22;45.05;;;15.20;99.90;;;;;;5087630;28;20057;-85
2023/05/09 05:28:56;;;;;;;90.05;44.08;;;15.30;99.90;;;;;;5105446;28;20090;-85
2023/05/09 05:31:22;;;;;;;86.70;45.80;;;15.30;99.90;;;;;;5088469;28;20031;-85
2023/05/09 05:33:47;;;;;;;83.18;42.47;;;15.30;99.90;;;;;;5072097;28;20075;-86
2023/05/09 05:36:13;;;;;;;89.88;45.60;;;15.30;99.90;;;;;;5088428;28;20079;-84
2023/05/09 05:38:39;;;;;;;82.13;43.53;;;15.30;99.90;;;;;;5105006;28;20084;-88
2023/05/09 05:41:05;;;;;;;86.55;43.63;;;15.30;99.90;;;;;;5089402;28;20039;-87
2023/05/09 05:43:30;;;;;;;80.55;43.95;;;15.40;99.90;;;;;;5087569;28;20047;-87
2023/05/09 05:45:56;;;;;;;76.85;42.78;;;16.30;99.90;;;;;;5072192;28;20086;-88
2023/05/09 05:48:22;;;;;;;70.28;39.72;;;15.40;99.90;;;;;;5087710;28;20055;-88
2023/05/09 05:50:48;;;;;;;65.40;36.90;;;15.30;99.90;;;;;;5122689;27;20464;-87
2023/05/09 05:53:13;;;;;;;56.40;35.35;;;15.40;99.90;;;;;;5088919;28;20126;-88
2023/05/09 05:55:39;;;;;;;48.05;31.05;;;15.30;99.90;;;;;;5071512;28;20046;-88
2023/05/09 05:58:05;;;;;;;38.70;28.08;;;15.40;99.90;;;;;;5072400;28;20127;-87
2023/05/09 06:00:30;;;;;;;34.75;24.25;;;15.40;99.90;;;;;;5072489;28;20046;-87
2023/05/09 06:02:56;;;;;;;34.80;22.83;;;15.30;99.90;;;;;;5092069;28;20553;-86
2023/05/09 06:05:22;;;;;;;31.85;22.52;;;15.30;99.90;;;;;;5089288;28;20431;-88
2023/05/09 06:07:47;;;;;;;32.83;21.88;;;15.30;99.90;;;;;;5105691;28;20044;-86
2023/05/09 06:10:14;;;;;;;33.65;22.05;;;15.30;99.90;;;;;;5088945;28;20047;-84
2023/05/09 06:12:40;;;;;;;33.63;22.55;;;16.20;99.90;;;;;;5072380;28;20043;-82
2023/05/09 06:15:06;;;;;;;30.13;21.42;;;15.40;99.90;;;;;;5104829;28;20057;-81
2023/05/09 06:17:33;;;;;;;28.70;22.05;;;15.40;99.90;;;;;;5121132;27;20090;-83
2023/05/09 06:19:59;;;;;;;34.25;22.27;;;15.40;99.90;;;;;;5104936;28;20101;-81
2023/05/09 06:22:24;;;;;;;32.30;22.77;;;15.40;99.90;;;;;;5070045;28;20048;-81
2023/05/09 06:24:50;;;;;;;35.70;23.58;;;15.40;99.90;;;;;;5087527;28;20438;-83
2023/05/09 06:27:16;;;;;;;36.05;23.85;;;15.40;99.90;;;;;;5086858;28;20054;-82
2023/05/09 06:29:43;;;;;;;37.38;24.30;;;15.40;99.90;;;;;;5070160;28;20520;-82
2023/05/09 06:32:08;;;;;;;40.38;24.48;;;15.50;99.90;;;;;;5087586;28;20051;-83
2023/05/09 06:34:34;;;;;;;40.42;25.40;;;15.60;99.90;;;;;;5086778;28;20050;-84
2023/05/09 06:37:00;;;;;;;41.63;25.70;;;15.60;99.90;;;;;;5071375;28;20040;-84
2023/05/09 06:39:25;;;;;;;39.85;25.75;;;15.60;99.90;;;;;;5069957;28;20051;-84
2023/05/09 06:41:51;;;;;;;32.45;23.23;;;15.70;99.90;;;;;;5087433;28;20130;-82
2023/05/09 06:44:17;;;;;;;35.75;23.90;;;15.70;99.90;;;;;;5103847;28;20058;-84
2023/05/09 06:46:42;;;;;;;36.10;24.42;;;15.70;99.90;;;;;;5087490;28;20092;-85
2023/05/09 06:49:09;;;;;;;37.28;24.85;;;15.80;99.90;;;;;;5070353;28;20527;-83
2023/05/09 06:51:35;;;;;;;32.80;24.05;;;15.80;99.90;;;;;;5086995;28;20043;-82
2023/05/09 06:54:01;;;;;;;40.00;25.08;;;15.80;99.90;;;;;;5121349;27;20488;-82
2023/05/09 06:56:27;;;;;;;35.28;21.73;;;15.80;99.90;;;;;;5085900;28;20500;-83
2023/05/09 06:58:53;;;;;;;33.30;23.20;;;15.80;99.90;;;;;;5087006;28;20079;-81
2023/05/09 07:01:19;;;;;;;36.75;24.95;;;15.90;99.90;;;;;;5069424;28;20040;-83
2023/05/09 07:03:46;;;;;;;38.50;23.75;;;15.90;99.90;;;;;;5086775;28;20087;-82
2023/05/09 07:06:12;;;;;;;33.47;23.33;;;15.90;99.90;;;;;;5070143;28;20076;-83
2023/05/09 07:08:38;;;;;;;36.10;24.40;;;16.90;99.90;;;;;;5103425;28;20043;-83
2023/05/09 07:11:04;;;;;;;34.53;23.35;;;15.80;99.90;;;;;;5070721;28;20500;-83
2023/05/09 07:13:29;;;;;;;36.45;23.35;;;15.80;99.90;;;;;;5085485;28;20035;-84
2023/05/09 07:15:55;;;;;;;37.70;26.02;;;15.70;99.90;;;;;;5087353;28;20043;-85
2023/05/09 07:18:21;;;;;;;40.63;25.73;;;15.70;99.90;;;;;;5120186;28;20467;-83
2023/05/09 07:20:47;;;;;;;34.53;25.33;;;15.70;99.90;;;;;;5069855;28;20130;-84
2023/05/09 07:23:12;;;;;;;37.80;25.52;;;15.80;99.90;;;;;;5069806;28;20078;-83
2023/05/09 07:25:38;;;;;;;34.95;24.25;;;15.80;99.90;;;;;;5086495;28;20051;-83
2023/05/09 07:28:04;;;;;;;45.88;27.48;;;15.80;99.90;;;;;;5070083;28;20538;-82
2023/05/09 07:30:30;;;;;;;41.03;25.88;;;15.80;99.90;;;;;;5085458;28;20105;-84
2023/05/09 07:32:55;;;;;;;38.08;26.58;;;15.80;99.90;;;;;;5087215;28;20146;-86
2023/05/09 07:35:21;;;;;;;42.00;27.40;;;15.80;99.90;;;;;;5085670;28;20043;-85
2023/05/09 07:37:47;;;;;;;39.13;27.20;;;15.90;99.90;;;;;;5052856;28;20127;-85
2023/05/09 07:40:13;;;;;;;43.35;28.00;;;15.90;99.90;;;;;;5086233;28;20043;-84
2023/05/09 07:42:39;;;;;;;40.90;27.98;;;16.00;99.90;;;;;;5087718;28;20043;-85
2023/05/09 07:45:05;;;;;;;45.65;28.30;;;16.10;99.90;;;;;;5091721;28;20040;-87
2023/05/09 07:47:32;;;;;;;46.13;28.70;;;16.20;99.90;;;;;;5072891;28;20074;-85
2023/05/09 07:49:58;;;;;;;47.33;29.92;;;16.20;99.90;;;;;;5108005;28;20043;-86
2023/05/09 07:52:23;;;;;;;49.25;29.48;;;16.30;99.90;;;;;;5106774;28;20389;-86
2023/05/09 07:54:49;;;;;;;56.08;31.25;;;16.30;99.90;;;;;;5073358;28;20047;-85
2023/05/09 07:57:15;;;;;;;51.10;30.98;;;16.50;99.90;;;;;;5090442;28;20088;-87
2023/05/09 07:59:41;;;;;;;50.70;29.80;;;16.60;99.90;;;;;;5090299;28;20134;-86
2023/05/09 08:02:07;;;;;;;49.72;30.05;;;16.60;99.90;;;;;;5090838;28;20441;-89
2023/05/09 08:04:36;;;;;;;49.67;30.20;;;16.60;99.90;;;;;;5089720;28;20464;-86
2023/05/09 08:07:03;;;;;;;41.85;28.45;;;16.60;99.90;;;;;;5090935;28;20043;-87
2023/05/09 08:09:29;;;;;;;50.22;30.38;;;16.60;99.90;;;;;;5107084;28;20416;-86
2023/05/09 08:11:54;;;;;;;53.15;30.92;;;16.60;99.90;;;;;;5090431;28;20050;-86
2023/05/09 08:14:20;;;;;;;53.53;31.30;;;16.60;99.90;;;;;;5089964;28;20039;-86
2023/05/09 08:16:46;;;;;;;55.65;33.33;;;16.60;99.90;;;;;;5106655;28;20119;-85
2023/05/09 08:19:11;;;;;;;59.45;33.75;;;17.50;99.90;;;;;;5090687;28;20050;-87
2023/05/09 08:21:37;;;;;;;53.45;32.97;;;16.70;99.90;;;;;;5105952;28;20097;-87
2023/05/09 08:24:04;;;;;;;54.30;32.67;;;16.70;99.90;;;;;;5073446;28;20039;-87
2023/05/09 08:26:30;;;;;;;56.58;33.53;;;16.80;99.90;;;;;;5089012;28;20047;-84
2023/05/09 08:28:56;;;;;;;52.20;32.88;;;16.80;99.90;;;;;;5089781;28;20040;-83
2023/05/09 08:31:22;;;;;;;54.55;34.25;;;16.80;99.90;;;;;;5106928;28;20092;-84
2023/05/09 08:33:47;;;;;;;60.20;34.92;;;16.80;99.90;;;;;;5089912;28;20075;-83
2023/05/09 08:36:13;;;;;;;62.17;33.92;;;16.80;99.90;;;;;;5090511;28;20043;-83
2023/05/09 08:38:39;;;;;;;60.25;35.30;;;16.80;99.90;;;;;;5089297;28;20107;-84
2023/05/09 08:41:05;;;;;;;67.20;34.88;;;16.90;99.90;;;;;;5124288;27;20577;-85
2023/05/09 08:43:32;;;;;;;57.67;33.92;;;16.90;99.90;;;;;;5105944;28;20047;-84
2023/05/09 08:46:02;;;;;;;61.90;36.28;;;16.90;99.90;;;;;;5090045;28;20430;-88
2023/05/09 08:48:29;;;;;;;59.58;34.72;;;17.80;99.90;;;;;;5089314;28;20050;-82
2023/05/09 08:50:55;;;;;;;60.42;36.08;;;17.00;99.90;;;;;;5089790;28;20035;-86
2023/05/09 08:53:21;;;;;;;57.28;34.10;;;17.00;99.90;;;;;;5072583;28;20048;-88
2023/05/09 08:55:51;;;;;;;62.60;35.85;;;17.00;99.90;;;;;;5122547;27;20130;-86
2023/05/09 08:58:18;;;;;;;61.20;34.42;;;17.00;99.90;;;;;;5070198;28;20040;-86
2023/05/09 09:00:45;;;;;;;60.67;34.58;;;17.00;99.90;;;;;;5071492;28;20040;-84
2023/05/09 09:03:11;;;;;;;58.65;32.90;;;17.10;99.90;;;;;;5089009;28;20039;-84
2023/05/09 09:05:41;;;;;;;61.03;35.55;;;17.10;99.90;;;;;;5105847;28;20105;-83
2023/05/09 09:08:08;;;;;;;59.65;33.80;;;17.10;99.90;;;;;;5105151;28;20083;-85
2023/05/09 09:10:34;;;;;;;57.05;34.55;;;17.10;99.90;;;;;;5072692;28;20126;-86
2023/05/09 09:13:03;;;;;;;57.28;34.28;;;17.10;99.90;;;;;;5087888;28;20035;-90
2023/05/09 09:15:34;;;;;;;63.22;33.20;;;17.20;99.90;;;;;;5089275;28;20043;-89
2023/05/09 09:18:06;;;;;;;61.30;31.65;;;17.30;99.90;;;;;;5071667;28;20040;-90
2023/05/09 09:20:34;;;;;;;43.53;24.27;;;17.40;99.90;;;;;;5088997;28;20075;-89
2023/05/09 09:23:03;;;;;;;55.30;30.95;;;17.50;99.90;;;;;;5123382;27;20088;-91
2023/05/09 09:25:29;;;;;;;58.88;32.58;;;17.60;99.90;;;;;;5088415;28;20047;-90
2023/05/09 09:27:54;;;;;;;58.58;31.73;;;17.70;99.90;;;;;;5089187;28;20056;-89
2023/05/09 09:30:24;;;;;;;50.15;31.83;;;17.70;99.90;;;;;;5072550;28;20047;-91
2023/05/09 09:32:49;;;;;;;56.08;32.40;;;17.70;99.90;;;;;;5090514;28;20035;-90
2023/05/09 09:35:16;;;;;;;56.53;32.35;;;17.60;99.90;;;;;;5072340;28;20070;-90
2023/05/09 09:37:42;;;;;;;54.13;31.42;;;17.10;99.90;;;;;;5073177;28;20079;-89
2023/05/09 09:40:10;;;;;;;51.67;29.02;;;17.70;99.90;;;;;;5073716;28;20058;-90
2023/05/09 09:42:48;;;;;;;50.80;29.63;;;17.80;99.90;;;;;;5072366;28;20073;-89
2023/05/09 09:45:18;;;;;;;51.40;29.58;;;17.90;99.90;;;;;;5090740;28;20078;-92
2023/05/09 09:47:46;;;;;;;51.65;30.33;;;18.10;99.90;;;;;;5088659;28;20059;-91
2023/05/09 09:50:24;;;;;;;45.65;28.98;;;17.90;99.90;;;;;;5106809;28;20048;-91
2023/05/09 09:52:55;;;;;;;45.47;28.02;;;18.00;99.90;;;;;;5090720;28;20039;-90
2023/05/09 09:55:22;;;;;;;44.90;27.23;;;18.00;99.90;;;;;;5122380;27;20130;-87
2023/05/09 09:57:49;;;;;;;43.97;25.73;;;17.90;99.90;;;;;;5072412;28;20043;-84
2023/05/09 10:00:23;;;;;;;39.85;26.15;;;17.90;99.90;;;;;;5121014;27;20482;-87
2023/05/09 10:02:59;;;;;;;40.85;25.48;;;18.00;99.90;;;;;;5122549;27;20044;-87
2023/05/09 10:05:27;;;;;;;41.80;25.27;;;17.90;99.90;;;;;;5087190;28;20067;-88
2023/05/09 10:08:02;;;;;;;43.83;27.48;;;17.80;99.90;;;;;;5088167;28;20040;-88
2023/05/09 10:10:33;;;;;;;44.83;24.20;;;17.70;99.90;;;;;;5123608;27;20104;-89
2023/05/09 10:13:02;;;;;;;39.60;25.30;;;17.60;99.90;;;;;;5121575;27;20105;-88
2023/05/09 10:15:30;;;;;;;44.63;26.13;;;17.50;99.90;;;;;;5088560;28;20130;-88
2023/05/09 10:17:57;;;;;;;45.72;26.23;;;17.50;99.90;;;;;;5087665;28;20031;-88
2023/05/09 10:20:24;;;;;;;40.90;24.73;;;17.60;99.90;;;;;;5088560;28;20507;-89
2023/05/09 10:22:55;;;;;;;39.35;24.42;;;17.70;99.90;;;;;;5088281;28;20055;-90
2023/05/09 10:25:26;;;;;;;45.53;26.13;;;17.80;99.90;;;;;;5087811;28;20039;-85
2023/05/09 10:27:55;;;;;;;39.25;26.02;;;18.00;99.90;;;;;;5105800;28;20058;-86
2023/05/09 10:30:31;;;;;;;39.75;24.80;;;17.80;99.90;;;;;;5086001;28;20081;-88
2023/05/09 10:32:59;;;;;;;38.95;23.45;;;17.80;99.90;;;;;;5105128;28;20096;-88
2023/05/09 10:35:46;;;;;;;45.88;25.42;;;17.80;99.90;;;;;;5103719;28;20051;-88
2023/05/09 10:38:12;;;;;;;38.83;22.70;;;18.00;99.90;;;;;;5120413;27;20096;-89
2023/05/09 10:40:45;;;;;;;33.67;22.73;;;18.10;99.90;;;;;;5105315;28;20043;-88
2023/05/09 10:43:11;;;;;;;;;;;18.20;99.90;;;;;;5120397;27;20046;-89
2023/05/09 10:45:37;;;;;;;30.25;20.42;;;18.30;99.90;;;;;;5087916;28;19920;-88
2023/05/09 10:48:07;;;;;;;31.17;20.10;;;18.50;99.90;;;;;;5086861;28;20051;-88
2023/05/09 10:50:35;;;;;;;32.80;21.13;;;18.60;99.90;;;;;;5071347;28;20518;-88
2023/05/09 10:53:15;;;;;;;27.80;18.92;;;18.60;99.90;;;;;;5111405;28;20043;-86
2023/05/09 10:55:49;;;;;;;27.75;17.73;;;18.70;99.90;;;;;;5090658;28;20138;-88
2023/05/09 10:58:20;;;;;;;27.33;18.30;;;18.80;99.90;;;;;;5105071;28;20043;-87
2023/05/09 11:00:50;;;;;;;27.67;18.77;;;18.90;99.90;;;;;;5089991;28;20089;-87
2023/05/09 11:03:18;;;;;;;29.02;18.02;;;19.10;99.90;;;;;;5086774;28;20138;-87
2023/05/09 11:05:46;;;;;;;25.40;17.35;;;19.20;99.90;;;;;;5087400;28;20040;-88
2023/05/09 11:08:29;;;;;;;30.15;17.38;;;19.20;99.90;;;;;;5086660;28;20076;-89
2023/05/09 11:11:05;;;;;;;26.48;16.75;;;19.10;99.90;;;;;;5122473;27;20519;-89
2023/05/09 11:13:39;;;;;;;25.10;16.42;;;19.00;99.90;;;;;;5086758;28;20572;-89
2023/05/09 11:16:08;;;;;;;29.55;18.27;;;18.90;99.90;;;;;;5088599;28;20557;-89
2023/05/09 11:18:34;;;;;;;25.00;16.88;;;18.90;99.90;;;;;;5093991;28;20089;-87
2023/05/09 11:21:08;;;;;;;26.95;17.42;;;18.90;99.90;;;;;;5110111;28;20039;-87
2023/05/09 11:23:34;;;;;;;25.55;17.25;;;18.90;99.90;;;;;;5113771;28;20054;-91
2023/05/09 11:26:07;;;;;;;27.48;17.13;;;19.00;99.90;;;;;;5096727;28;20063;-93
2023/05/09 11:28:36;;;;;;;26.38;17.05;;;19.00;99.90;;;;;;5097371;28;20131;-87
2023/05/09 11:31:20;;;;;;;26.25;16.15;;;19.10;99.90;;;;;;5094386;28;20476;-91
2023/05/09 11:33:53;;;;;;;23.45;16.13;;;19.10;99.90;;;;;;5079524;28;20132;-95
2023/05/09 11:36:32;;;;;;;25.27;15.25;;;19.10;99.90;;;;;;5083220;28;20495;-94
2023/05/09 11:39:03;;;;;;;22.27;16.55;;;19.00;99.90;;;;;;5096254;28;20035;-95
2023/05/09 11:41:30;;;;;;;22.08;15.90;;;18.90;99.90;;;;;;5097500;28;20047;-92
2023/05/09 11:43:58;;;;;;;29.48;16.35;;;18.90;99.90;;;;;;5096345;28;20054;-89
2023/05/09 11:46:25;;;;;;;23.08;14.77;;;18.80;99.90;;;;;;5076684;28;20040;-89
2023/05/09 11:48:52;;;;;;;20.30;13.90;;;18.70;99.90;;;;;;5078799;28;20040;-89
2023/05/09 11:51:18;;;;;;;26.55;15.15;;;18.70;99.90;;;;;;5076607;28;20044;-90
2023/05/09 11:53:48;;;;;;;18.02;14.02;;;18.80;99.90;;;;;;5128960;27;20043;-89
2023/05/09 11:56:15;;;;;;;21.65;15.15;;;18.80;99.90;;;;;;5092972;28;20032;-90
2023/05/09 11:58:42;;;;;;;20.10;13.90;;;18.90;99.90;;;;;;5094463;28;20150;-88
2023/05/09 12:01:11;;;;;;;21.25;14.63;;;19.10;99.90;;;;;;5077432;28;20511;-87
2023/05/09 12:03:42;;;;;;;21.50;14.32;;;19.30;99.90;;;;;;5075903;28;20042;-88
2023/05/09 12:06:08;;;;;;;23.23;14.23;;;19.50;99.90;;;;;;5111650;28;20054;-88
2023/05/09 12:08:35;;;;;;;24.35;15.73;;;19.60;99.90;;;;;;5075678;28;20134;-93
2023/05/09 12:11:08;;;;;;;23.15;15.63;;;19.60;99.90;;;;;;5078604;28;20046;-89
2023/05/09 12:13:36;;;;;;;26.55;15.23;;;19.70;99.90;;;;;;5076260;28;20093;-89
2023/05/09 12:16:02;;;;;;;23.67;15.93;;;19.70;99.90;;;;;;5077329;28;20046;-89
2023/05/09 12:18:28;;;;;;;21.35;15.43;;;19.80;99.90;;;;;;5077880;28;20494;-91
2023/05/09 12:20:54;;;;;;;20.67;14.55;;;19.80;99.90;;;;;;5076392;28;20044;-88
2023/05/09 12:23:19;;;;;;;21.05;14.77;;;19.90;99.90;;;;;;5078340;28;20061;-89
2023/05/09 12:25:52;;;;;;;22.95;17.60;;;20.00;99.90;;;;;;5092226;28;20086;-89
2023/05/09 12:28:23;;;;;;;29.38;14.10;;;20.10;99.90;;;;;;5092626;28;20064;-89
2023/05/09 12:30:50;;;;;;;20.10;14.23;;;20.20;99.90;;;;;;5107695;28;20055;-90